sensor_id;sensor_type;location;lat;lon;timestamp;P1;durP1;ratioP1;P2;durP2;ratioP2
9294;SDS011;4686;44.496;11.324;2022-10-16T00:00:10;12.13;;;10.77;;
9294;SDS011;4686;44.496;11.324;2022-10-16T00:02:37;12.47;;;10.10;;
9294;SDS011;4686;44.496;11.324;2022-10-16T00:05:08;13.40;;;10.80;;
9294;SDS011;4686;44.496;11.324;2022-10-16T00:07:40;15.93;;;11.10;;
9294;SDS011;4686;44.496;11.324;2022-10-16T00:10:09;12.10;;;10.20;;
9294;SDS011;4686;44.496;11.324;2022-10-16T00:12:38;12.40;;;11.10;;
9294;SDS011;4686;44.496;11.324;2022-10-16T00:15:05;12.73;;;10.50;;
9294;SDS011;4686;44.496;11.324;2022-10-16T00:17:36;12.30;;;10.60;;
9294;SDS011;4686;44.496;11.324;2022-10-16T00:20:09;11.70;;;10.53;;
9294;SDS011;4686;44.496;11.324;2022-10-16T00:22:36;17.50;;;11.03;;
9294;SDS011;4686;44.496;11.324;2022-10-16T00:25:04;12.30;;;10.33;;
9294;SDS011;4686;44.496;11.324;2022-10-16T00:27:44;14.30;;;11.07;;
9294;SDS011;4686;44.496;11.324;2022-10-16T00:30:12;13.87;;;10.67;;
9294;SDS011;4686;44.496;11.324;2022-10-16T00:32:39;12.07;;;10.87;;
9294;SDS011;4686;44.496;11.324;2022-10-16T00:35:06;13.07;;;10.03;;
9294;SDS011;4686;44.496;11.324;2022-10-16T00:37:35;12.67;;;10.10;;
9294;SDS011;4686;44.496;11.324;2022-10-16T00:40:02;12.20;;;10.70;;
9294;SDS011;4686;44.496;11.324;2022-10-16T00:42:30;12.07;;;9.90;;
9294;SDS011;4686;44.496;11.324;2022-10-16T00:44:57;12.70;;;10.50;;
9294;SDS011;4686;44.496;11.324;2022-10-16T00:47:25;13.80;;;9.80;;
9294;SDS011;4686;44.496;11.324;2022-10-16T00:49:54;13.53;;;10.00;;
9294;SDS011;4686;44.496;11.324;2022-10-16T00:52:22;11.67;;;10.07;;
9294;SDS011;4686;44.496;11.324;2022-10-16T00:54:56;12.50;;;10.80;;
9294;SDS011;4686;44.496;11.324;2022-10-16T00:57:24;14.70;;;10.60;;
9294;SDS011;4686;44.496;11.324;2022-10-16T00:59:52;12.07;;;10.80;;
9294;SDS011;4686;44.496;11.324;2022-10-16T01:02:20;16.73;;;10.93;;
9294;SDS011;4686;44.496;11.324;2022-10-16T01:04:48;15.33;;;10.37;;
9294;SDS011;4686;44.496;11.324;2022-10-16T01:07:18;11.53;;;10.37;;
9294;SDS011;4686;44.496;11.324;2022-10-16T01:09:51;18.93;;;10.93;;
9294;SDS011;4686;44.496;11.324;2022-10-16T01:12:28;14.23;;;10.90;;
9294;SDS011;4686;44.496;11.324;2022-10-16T01:14:58;15.43;;;11.33;;
9294;SDS011;4686;44.496;11.324;2022-10-16T01:17:29;12.17;;;10.97;;
9294;SDS011;4686;44.496;11.324;2022-10-16T01:20:02;15.00;;;11.57;;
9294;SDS011;4686;44.496;11.324;2022-10-16T01:22:33;12.40;;;10.83;;
9294;SDS011;4686;44.496;11.324;2022-10-16T01:25:07;11.60;;;10.40;;
9294;SDS011;4686;44.496;11.324;2022-10-16T01:27:37;14.50;;;10.60;;
9294;SDS011;4686;44.496;11.324;2022-10-16T01:30:07;11.73;;;10.63;;
9294;SDS011;4686;44.496;11.324;2022-10-16T01:32:36;13.37;;;11.20;;
9294;SDS011;4686;44.496;11.324;2022-10-16T01:35:05;13.13;;;10.50;;
9294;SDS011;4686;44.496;11.324;2022-10-16T01:37:37;15.70;;;11.83;;
9294;SDS011;4686;44.496;11.324;2022-10-16T01:40:06;15.53;;;11.00;;
9294;SDS011;4686;44.496;11.324;2022-10-16T01:42:35;14.13;;;10.60;;
9294;SDS011;4686;44.496;11.324;2022-10-16T01:45:06;12.50;;;10.20;;
9294;SDS011;4686;44.496;11.324;2022-10-16T01:47:36;13.83;;;11.00;;
9294;SDS011;4686;44.496;11.324;2022-10-16T01:50:05;11.60;;;10.50;;
9294;SDS011;4686;44.496;11.324;2022-10-16T01:52:34;12.33;;;10.57;;
9294;SDS011;4686;44.496;11.324;2022-10-16T01:55:03;11.70;;;10.50;;
9294;SDS011;4686;44.496;11.324;2022-10-16T01:57:31;12.60;;;10.87;;
9294;SDS011;4686;44.496;11.324;2022-10-16T02:00:00;11.73;;;10.50;;
9294;SDS011;4686;44.496;11.324;2022-10-16T02:02:30;11.43;;;10.23;;
9294;SDS011;4686;44.496;11.324;2022-10-16T02:04:58;12.30;;;11.00;;
9294;SDS011;4686;44.496;11.324;2022-10-16T02:07:26;18.03;;;10.93;;
9294;SDS011;4686;44.496;11.324;2022-10-16T02:09:54;12.33;;;10.73;;
9294;SDS011;4686;44.496;11.324;2022-10-16T02:12:23;12.73;;;10.80;;
9294;SDS011;4686;44.496;11.324;2022-10-16T02:14:52;11.60;;;10.40;;
9294;SDS011;4686;44.496;11.324;2022-10-16T02:17:20;11.87;;;10.50;;
9294;SDS011;4686;44.496;11.324;2022-10-16T02:19:49;14.33;;;11.03;;
9294;SDS011;4686;44.496;11.324;2022-10-16T02:22:18;15.50;;;10.97;;
9294;SDS011;4686;44.496;11.324;2022-10-16T02:24:50;13.53;;;12.13;;
9294;SDS011;4686;44.496;11.324;2022-10-16T02:27:19;12.80;;;9.80;;
9294;SDS011;4686;44.496;11.324;2022-10-16T02:29:52;11.67;;;10.50;;
9294;SDS011;4686;44.496;11.324;2022-10-16T02:32:24;13.67;;;11.43;;
9294;SDS011;4686;44.496;11.324;2022-10-16T02:34:53;12.73;;;10.30;;
9294;SDS011;4686;44.496;11.324;2022-10-16T02:37:21;11.67;;;10.47;;
9294;SDS011;4686;44.496;11.324;2022-10-16T02:39:48;11.63;;;10.40;;
9294;SDS011;4686;44.496;11.324;2022-10-16T02:42:17;10.83;;;9.73;;
9294;SDS011;4686;44.496;11.324;2022-10-16T02:44:44;14.50;;;10.73;;
9294;SDS011;4686;44.496;11.324;2022-10-16T02:47:12;12.77;;;10.60;;
9294;SDS011;4686;44.496;11.324;2022-10-16T02:49:39;14.37;;;10.90;;
9294;SDS011;4686;44.496;11.324;2022-10-16T02:52:07;14.50;;;10.33;;
9294;SDS011;4686;44.496;11.324;2022-10-16T02:54:35;11.87;;;10.50;;
9294;SDS011;4686;44.496;11.324;2022-10-16T02:57:02;11.90;;;10.80;;
9294;SDS011;4686;44.496;11.324;2022-10-16T02:59:29;11.10;;;9.97;;
9294;SDS011;4686;44.496;11.324;2022-10-16T03:01:56;12.20;;;10.90;;
9294;SDS011;4686;44.496;11.324;2022-10-16T03:04:24;12.33;;;10.90;;
9294;SDS011;4686;44.496;11.324;2022-10-16T03:06:51;16.87;;;9.93;;
9294;SDS011;4686;44.496;11.324;2022-10-16T03:09:20;11.67;;;10.50;;
9294;SDS011;4686;44.496;11.324;2022-10-16T03:11:47;14.73;;;11.00;;
9294;SDS011;4686;44.496;11.324;2022-10-16T03:14:15;11.40;;;10.30;;
9294;SDS011;4686;44.496;11.324;2022-10-16T03:16:42;13.20;;;10.73;;
9294;SDS011;4686;44.496;11.324;2022-10-16T03:19:09;15.20;;;10.90;;
9294;SDS011;4686;44.496;11.324;2022-10-16T03:21:36;14.73;;;10.30;;
9294;SDS011;4686;44.496;11.324;2022-10-16T03:24:04;13.87;;;10.90;;
9294;SDS011;4686;44.496;11.324;2022-10-16T03:26:33;11.30;;;10.17;;
9294;SDS011;4686;44.496;11.324;2022-10-16T03:29:00;11.13;;;10.03;;
9294;SDS011;4686;44.496;11.324;2022-10-16T03:31:28;10.53;;;9.60;;
9294;SDS011;4686;44.496;11.324;2022-10-16T03:33:55;13.37;;;10.43;;
9294;SDS011;4686;44.496;11.324;2022-10-16T03:36:23;12.37;;;10.30;;
9294;SDS011;4686;44.496;11.324;2022-10-16T03:38:51;11.97;;;10.80;;
9294;SDS011;4686;44.496;11.324;2022-10-16T03:41:22;15.63;;;11.00;;
9294;SDS011;4686;44.496;11.324;2022-10-16T03:43:54;11.13;;;9.90;;
9294;SDS011;4686;44.496;11.324;2022-10-16T03:46:21;12.80;;;9.80;;
9294;SDS011;4686;44.496;11.324;2022-10-16T03:48:50;13.93;;;10.30;;
9294;SDS011;4686;44.496;11.324;2022-10-16T03:51:21;11.27;;;10.17;;
9294;SDS011;4686;44.496;11.324;2022-10-16T03:53:51;11.50;;;10.10;;
9294;SDS011;4686;44.496;11.324;2022-10-16T03:56:18;10.40;;;9.47;;
9294;SDS011;4686;44.496;11.324;2022-10-16T03:58:46;12.53;;;9.23;;
9294;SDS011;4686;44.496;11.324;2022-10-16T04:01:16;12.87;;;10.10;;
9294;SDS011;4686;44.496;11.324;2022-10-16T04:03:44;10.37;;;9.40;;
9294;SDS011;4686;44.496;11.324;2022-10-16T04:06:11;11.30;;;9.53;;
9294;SDS011;4686;44.496;11.324;2022-10-16T04:08:38;11.53;;;9.60;;
9294;SDS011;4686;44.496;11.324;2022-10-16T04:11:05;12.70;;;10.60;;
9294;SDS011;4686;44.496;11.324;2022-10-16T04:13:33;10.73;;;9.73;;
9294;SDS011;4686;44.496;11.324;2022-10-16T04:16:06;10.83;;;9.33;;
9294;SDS011;4686;44.496;11.324;2022-10-16T04:18:35;12.87;;;10.30;;
9294;SDS011;4686;44.496;11.324;2022-10-16T04:21:03;14.77;;;10.43;;
9294;SDS011;4686;44.496;11.324;2022-10-16T04:23:31;11.50;;;10.30;;
9294;SDS011;4686;44.496;11.324;2022-10-16T04:25:59;13.13;;;11.67;;
9294;SDS011;4686;44.496;11.324;2022-10-16T04:28:26;10.87;;;9.47;;
9294;SDS011;4686;44.496;11.324;2022-10-16T04:30:54;13.10;;;10.93;;
9294;SDS011;4686;44.496;11.324;2022-10-16T04:33:21;14.93;;;11.23;;
9294;SDS011;4686;44.496;11.324;2022-10-16T04:35:57;10.63;;;9.63;;
9294;SDS011;4686;44.496;11.324;2022-10-16T04:38:24;17.13;;;12.13;;
9294;SDS011;4686;44.496;11.324;2022-10-16T04:40:51;11.07;;;10.07;;
9294;SDS011;4686;44.496;11.324;2022-10-16T04:43:19;10.97;;;10.00;;
9294;SDS011;4686;44.496;11.324;2022-10-16T04:45:46;14.30;;;10.80;;
9294;SDS011;4686;44.496;11.324;2022-10-16T04:48:15;15.70;;;10.63;;
9294;SDS011;4686;44.496;11.324;2022-10-16T04:50:42;11.73;;;10.53;;
9294;SDS011;4686;44.496;11.324;2022-10-16T04:53:11;14.60;;;10.30;;
9294;SDS011;4686;44.496;11.324;2022-10-16T04:55:39;12.77;;;10.10;;
9294;SDS011;4686;44.496;11.324;2022-10-16T04:58:06;12.10;;;10.90;;
9294;SDS011;4686;44.496;11.324;2022-10-16T05:00:34;13.93;;;10.30;;
9294;SDS011;4686;44.496;11.324;2022-10-16T05:03:01;11.10;;;9.83;;
9294;SDS011;4686;44.496;11.324;2022-10-16T05:05:32;13.10;;;10.47;;
9294;SDS011;4686;44.496;11.324;2022-10-16T05:08:00;13.33;;;10.40;;
9294;SDS011;4686;44.496;11.324;2022-10-16T05:10:28;13.00;;;9.80;;
9294;SDS011;4686;44.496;11.324;2022-10-16T05:12:56;12.10;;;11.00;;
9294;SDS011;4686;44.496;11.324;2022-10-16T05:15:38;13.17;;;10.80;;
9294;SDS011;4686;44.496;11.324;2022-10-16T05:18:06;12.13;;;10.20;;
9294;SDS011;4686;44.496;11.324;2022-10-16T05:20:36;12.03;;;10.63;;
9294;SDS011;4686;44.496;11.324;2022-10-16T05:23:06;12.07;;;9.90;;
9294;SDS011;4686;44.496;11.324;2022-10-16T05:25:36;12.60;;;11.40;;
9294;SDS011;4686;44.496;11.324;2022-10-16T05:28:18;12.50;;;10.57;;
9294;SDS011;4686;44.496;11.324;2022-10-16T05:30:45;11.07;;;9.80;;
9294;SDS011;4686;44.496;11.324;2022-10-16T05:33:16;16.73;;;10.10;;
9294;SDS011;4686;44.496;11.324;2022-10-16T05:35:43;16.40;;;10.60;;
9294;SDS011;4686;44.496;11.324;2022-10-16T05:38:11;12.77;;;10.50;;
9294;SDS011;4686;44.496;11.324;2022-10-16T05:40:40;11.07;;;10.07;;
9294;SDS011;4686;44.496;11.324;2022-10-16T05:43:07;12.90;;;9.90;;
9294;SDS011;4686;44.496;11.324;2022-10-16T05:45:36;12.27;;;11.07;;
9294;SDS011;4686;44.496;11.324;2022-10-16T05:48:05;11.20;;;10.00;;
9294;SDS011;4686;44.496;11.324;2022-10-16T05:50:34;12.00;;;9.70;;
9294;SDS011;4686;44.496;11.324;2022-10-16T05:53:01;14.20;;;10.20;;
9294;SDS011;4686;44.496;11.324;2022-10-16T05:55:30;12.87;;;11.57;;
9294;SDS011;4686;44.496;11.324;2022-10-16T05:58:00;11.10;;;10.10;;
9294;SDS011;4686;44.496;11.324;2022-10-16T06:00:31;11.50;;;10.33;;
9294;SDS011;4686;44.496;11.324;2022-10-16T06:02:59;11.40;;;10.17;;
9294;SDS011;4686;44.496;11.324;2022-10-16T06:05:27;13.17;;;10.03;;
9294;SDS011;4686;44.496;11.324;2022-10-16T06:07:55;13.90;;;10.60;;
9294;SDS011;4686;44.496;11.324;2022-10-16T06:10:22;12.40;;;9.63;;
9294;SDS011;4686;44.496;11.324;2022-10-16T06:12:50;17.80;;;10.57;;
9294;SDS011;4686;44.496;11.324;2022-10-16T06:15:19;10.27;;;9.20;;
9294;SDS011;4686;44.496;11.324;2022-10-16T06:17:48;11.73;;;9.30;;
9294;SDS011;4686;44.496;11.324;2022-10-16T06:20:31;11.13;;;9.50;;
9294;SDS011;4686;44.496;11.324;2022-10-16T06:23:00;10.47;;;9.50;;
9294;SDS011;4686;44.496;11.324;2022-10-16T06:25:29;11.37;;;9.60;;
9294;SDS011;4686;44.496;11.324;2022-10-16T06:28:04;10.67;;;9.67;;
9294;SDS011;4686;44.496;11.324;2022-10-16T06:30:37;10.07;;;9.07;;
9294;SDS011;4686;44.496;11.324;2022-10-16T06:33:05;14.10;;;11.00;;
9294;SDS011;4686;44.496;11.324;2022-10-16T06:35:32;11.27;;;9.30;;
9294;SDS011;4686;44.496;11.324;2022-10-16T06:38:00;10.57;;;9.33;;
9294;SDS011;4686;44.496;11.324;2022-10-16T06:40:27;12.93;;;9.50;;
9294;SDS011;4686;44.496;11.324;2022-10-16T06:42:54;10.63;;;9.60;;
9294;SDS011;4686;44.496;11.324;2022-10-16T06:45:21;13.20;;;9.50;;
9294;SDS011;4686;44.496;11.324;2022-10-16T06:47:50;10.93;;;9.87;;
9294;SDS011;4686;44.496;11.324;2022-10-16T06:50:17;11.90;;;9.30;;
9294;SDS011;4686;44.496;11.324;2022-10-16T06:52:45;10.90;;;9.80;;
9294;SDS011;4686;44.496;11.324;2022-10-16T06:55:12;9.97;;;9.07;;
9294;SDS011;4686;44.496;11.324;2022-10-16T06:57:40;12.60;;;9.47;;
9294;SDS011;4686;44.496;11.324;2022-10-16T07:00:07;17.23;;;9.20;;
9294;SDS011;4686;44.496;11.324;2022-10-16T07:02:34;11.13;;;9.90;;
9294;SDS011;4686;44.496;11.324;2022-10-16T07:05:03;10.17;;;9.17;;
9294;SDS011;4686;44.496;11.324;2022-10-16T07:07:31;12.20;;;9.00;;
9294;SDS011;4686;44.496;11.324;2022-10-16T07:09:58;14.30;;;8.93;;
9294;SDS011;4686;44.496;11.324;2022-10-16T07:12:25;10.17;;;9.23;;
9294;SDS011;4686;44.496;11.324;2022-10-16T07:14:52;10.97;;;9.37;;
9294;SDS011;4686;44.496;11.324;2022-10-16T07:17:21;9.90;;;8.90;;
9294;SDS011;4686;44.496;11.324;2022-10-16T07:19:48;12.50;;;8.67;;
9294;SDS011;4686;44.496;11.324;2022-10-16T07:22:19;11.10;;;9.20;;
9294;SDS011;4686;44.496;11.324;2022-10-16T07:24:46;11.03;;;9.00;;
9294;SDS011;4686;44.496;11.324;2022-10-16T07:27:14;14.63;;;9.07;;
9294;SDS011;4686;44.496;11.324;2022-10-16T07:29:41;9.43;;;8.53;;
9294;SDS011;4686;44.496;11.324;2022-10-16T07:32:10;14.10;;;8.57;;
9294;SDS011;4686;44.496;11.324;2022-10-16T07:34:37;11.43;;;9.30;;
9294;SDS011;4686;44.496;11.324;2022-10-16T07:37:05;9.63;;;8.40;;
9294;SDS011;4686;44.496;11.324;2022-10-16T07:39:33;14.10;;;8.60;;
9294;SDS011;4686;44.496;11.324;2022-10-16T07:42:01;9.60;;;8.57;;
9294;SDS011;4686;44.496;11.324;2022-10-16T07:44:28;10.00;;;8.20;;
9294;SDS011;4686;44.496;11.324;2022-10-16T07:46:55;12.80;;;9.40;;
9294;SDS011;4686;44.496;11.324;2022-10-16T07:49:23;10.57;;;9.57;;
9294;SDS011;4686;44.496;11.324;2022-10-16T07:51:50;11.73;;;8.90;;
9294;SDS011;4686;44.496;11.324;2022-10-16T07:54:17;11.00;;;9.20;;
9294;SDS011;4686;44.496;11.324;2022-10-16T07:56:46;11.23;;;9.23;;
9294;SDS011;4686;44.496;11.324;2022-10-16T07:59:14;10.03;;;9.03;;
9294;SDS011;4686;44.496;11.324;2022-10-16T08:01:42;14.83;;;8.77;;
9294;SDS011;4686;44.496;11.324;2022-10-16T08:04:09;8.70;;;7.90;;
9294;SDS011;4686;44.496;11.324;2022-10-16T08:06:37;12.97;;;8.50;;
9294;SDS011;4686;44.496;11.324;2022-10-16T08:09:05;12.60;;;9.10;;
9294;SDS011;4686;44.496;11.324;2022-10-16T08:11:32;10.20;;;9.10;;
9294;SDS011;4686;44.496;11.324;2022-10-16T08:14:03;9.90;;;9.00;;
9294;SDS011;4686;44.496;11.324;2022-10-16T08:16:30;10.70;;;8.40;;
9294;SDS011;4686;44.496;11.324;2022-10-16T08:18:58;10.20;;;9.10;;
9294;SDS011;4686;44.496;11.324;2022-10-16T08:21:25;13.37;;;9.63;;
9294;SDS011;4686;44.496;11.324;2022-10-16T08:23:53;14.67;;;8.97;;
9294;SDS011;4686;44.496;11.324;2022-10-16T08:26:20;11.73;;;9.60;;
9294;SDS011;4686;44.496;11.324;2022-10-16T08:28:49;13.00;;;9.53;;
9294;SDS011;4686;44.496;11.324;2022-10-16T08:31:18;9.60;;;8.70;;
9294;SDS011;4686;44.496;11.324;2022-10-16T08:33:45;11.20;;;10.13;;
9294;SDS011;4686;44.496;11.324;2022-10-16T08:36:13;14.57;;;10.70;;
9294;SDS011;4686;44.496;11.324;2022-10-16T08:38:40;14.17;;;11.33;;
9294;SDS011;4686;44.496;11.324;2022-10-16T08:44:11;16.83;;;14.60;;
9294;SDS011;4686;44.496;11.324;2022-10-16T08:46:44;24.33;;;15.40;;
9294;SDS011;4686;44.496;11.324;2022-10-16T08:49:15;25.03;;;16.60;;
9294;SDS011;4686;44.496;11.324;2022-10-16T08:51:43;19.90;;;16.10;;
9294;SDS011;4686;44.496;11.324;2022-10-16T08:54:15;22.40;;;15.47;;
9294;SDS011;4686;44.496;11.324;2022-10-16T08:56:46;21.87;;;15.33;;
9294;SDS011;4686;44.496;11.324;2022-10-16T08:59:14;19.80;;;15.70;;
9294;SDS011;4686;44.496;11.324;2022-10-16T09:01:47;19.33;;;14.93;;
9294;SDS011;4686;44.496;11.324;2022-10-16T09:07:08;19.27;;;15.57;;
9294;SDS011;4686;44.496;11.324;2022-10-16T09:09:45;17.20;;;14.07;;
9294;SDS011;4686;44.496;11.324;2022-10-16T09:12:17;15.03;;;13.47;;
9294;SDS011;4686;44.496;11.324;2022-10-16T09:14:51;13.93;;;11.43;;
9294;SDS011;4686;44.496;11.324;2022-10-16T09:17:30;14.67;;;13.27;;
9294;SDS011;4686;44.496;11.324;2022-10-16T09:20:03;16.03;;;12.77;;
9294;SDS011;4686;44.496;11.324;2022-10-16T09:22:32;16.30;;;12.73;;
9294;SDS011;4686;44.496;11.324;2022-10-16T09:25:00;16.60;;;14.70;;
9294;SDS011;4686;44.496;11.324;2022-10-16T09:27:28;13.20;;;11.80;;
9294;SDS011;4686;44.496;11.324;2022-10-16T09:29:55;16.17;;;12.87;;
9294;SDS011;4686;44.496;11.324;2022-10-16T09:32:27;14.87;;;11.67;;
9294;SDS011;4686;44.496;11.324;2022-10-16T09:34:56;16.50;;;12.50;;
9294;SDS011;4686;44.496;11.324;2022-10-16T09:37:25;14.30;;;12.90;;
9294;SDS011;4686;44.496;11.324;2022-10-16T09:39:53;16.43;;;12.90;;
9294;SDS011;4686;44.496;11.324;2022-10-16T09:42:21;15.17;;;11.73;;
9294;SDS011;4686;44.496;11.324;2022-10-16T09:44:50;33.40;;;20.53;;
9294;SDS011;4686;44.496;11.324;2022-10-16T09:47:19;14.73;;;12.77;;
9294;SDS011;4686;44.496;11.324;2022-10-16T09:49:52;15.63;;;13.17;;
9294;SDS011;4686;44.496;11.324;2022-10-16T09:52:20;15.20;;;12.33;;
9294;SDS011;4686;44.496;11.324;2022-10-16T09:54:51;13.70;;;11.50;;
9294;SDS011;4686;44.496;11.324;2022-10-16T09:57:19;13.97;;;11.90;;
9294;SDS011;4686;44.496;11.324;2022-10-16T09:59:47;21.13;;;16.83;;
9294;SDS011;4686;44.496;11.324;2022-10-16T10:02:14;14.90;;;12.57;;
9294;SDS011;4686;44.496;11.324;2022-10-16T10:04:45;15.23;;;12.43;;
9294;SDS011;4686;44.496;11.324;2022-10-16T10:07:20;16.30;;;14.53;;
9294;SDS011;4686;44.496;11.324;2022-10-16T10:09:48;22.47;;;14.10;;
9294;SDS011;4686;44.496;11.324;2022-10-16T10:12:19;17.90;;;12.43;;
9294;SDS011;4686;44.496;11.324;2022-10-16T10:14:47;20.70;;;13.50;;
9294;SDS011;4686;44.496;11.324;2022-10-16T10:17:15;15.17;;;13.60;;
9294;SDS011;4686;44.496;11.324;2022-10-16T10:19:45;15.43;;;13.80;;
9294;SDS011;4686;44.496;11.324;2022-10-16T10:22:16;21.10;;;13.90;;
9294;SDS011;4686;44.496;11.324;2022-10-16T10:24:46;15.13;;;13.50;;
9294;SDS011;4686;44.496;11.324;2022-10-16T10:27:21;20.23;;;16.00;;
9294;SDS011;4686;44.496;11.324;2022-10-16T10:29:52;16.53;;;12.57;;
9294;SDS011;4686;44.496;11.324;2022-10-16T10:32:23;15.63;;;12.93;;
9294;SDS011;4686;44.496;11.324;2022-10-16T10:34:59;15.97;;;13.93;;
9294;SDS011;4686;44.496;11.324;2022-10-16T10:37:33;18.37;;;13.50;;
9294;SDS011;4686;44.496;11.324;2022-10-16T10:40:07;18.37;;;13.27;;
9294;SDS011;4686;44.496;11.324;2022-10-16T10:42:40;19.33;;;13.67;;
9294;SDS011;4686;44.496;11.324;2022-10-16T10:45:16;19.23;;;13.80;;
9294;SDS011;4686;44.496;11.324;2022-10-16T10:47:47;17.00;;;14.07;;
9294;SDS011;4686;44.496;11.324;2022-10-16T10:50:17;21.73;;;15.07;;
9294;SDS011;4686;44.496;11.324;2022-10-16T10:52:50;22.70;;;17.53;;
9294;SDS011;4686;44.496;11.324;2022-10-16T10:55:23;18.17;;;15.80;;
9294;SDS011;4686;44.496;11.324;2022-10-16T10:58:06;18.83;;;15.43;;
9294;SDS011;4686;44.496;11.324;2022-10-16T11:00:42;22.10;;;15.10;;
9294;SDS011;4686;44.496;11.324;2022-10-16T11:03:13;24.37;;;15.73;;
9294;SDS011;4686;44.496;11.324;2022-10-16T11:05:48;24.50;;;15.77;;
9294;SDS011;4686;44.496;11.324;2022-10-16T11:08:17;20.87;;;15.97;;
9294;SDS011;4686;44.496;11.324;2022-10-16T11:10:49;17.43;;;15.53;;
9294;SDS011;4686;44.496;11.324;2022-10-16T11:13:21;20.30;;;16.60;;
9294;SDS011;4686;44.496;11.324;2022-10-16T11:15:50;28.10;;;16.60;;
9294;SDS011;4686;44.496;11.324;2022-10-16T11:18:19;17.17;;;15.00;;
9294;SDS011;4686;44.496;11.324;2022-10-16T11:20:49;25.40;;;16.53;;
9294;SDS011;4686;44.496;11.324;2022-10-16T11:23:18;20.93;;;16.10;;
9294;SDS011;4686;44.496;11.324;2022-10-16T11:25:49;22.60;;;15.97;;
9294;SDS011;4686;44.496;11.324;2022-10-16T11:28:20;21.43;;;16.20;;
9294;SDS011;4686;44.496;11.324;2022-10-16T11:30:51;18.43;;;14.63;;
9294;SDS011;4686;44.496;11.324;2022-10-16T11:33:23;24.33;;;17.33;;
9294;SDS011;4686;44.496;11.324;2022-10-16T11:35:53;18.70;;;13.83;;
9294;SDS011;4686;44.496;11.324;2022-10-16T11:38:24;20.50;;;14.10;;
9294;SDS011;4686;44.496;11.324;2022-10-16T11:40:56;21.83;;;15.93;;
9294;SDS011;4686;44.496;11.324;2022-10-16T11:43:26;14.17;;;12.67;;
9294;SDS011;4686;44.496;11.324;2022-10-16T11:45:56;16.43;;;14.67;;
9294;SDS011;4686;44.496;11.324;2022-10-16T11:48:27;18.87;;;15.17;;
9294;SDS011;4686;44.496;11.324;2022-10-16T11:50:56;19.90;;;15.13;;
9294;SDS011;4686;44.496;11.324;2022-10-16T11:53:28;21.17;;;15.43;;
9294;SDS011;4686;44.496;11.324;2022-10-16T11:56:00;22.83;;;15.97;;
9294;SDS011;4686;44.496;11.324;2022-10-16T11:58:28;14.83;;;12.90;;
9294;SDS011;4686;44.496;11.324;2022-10-16T12:01:01;19.57;;;14.97;;
9294;SDS011;4686;44.496;11.324;2022-10-16T12:03:34;17.70;;;14.23;;
9294;SDS011;4686;44.496;11.324;2022-10-16T12:06:12;17.00;;;13.57;;
9294;SDS011;4686;44.496;11.324;2022-10-16T12:08:43;19.50;;;13.40;;
9294;SDS011;4686;44.496;11.324;2022-10-16T12:11:22;17.03;;;14.00;;
9294;SDS011;4686;44.496;11.324;2022-10-16T12:13:49;21.60;;;14.40;;
9294;SDS011;4686;44.496;11.324;2022-10-16T12:16:23;24.53;;;14.47;;
9294;SDS011;4686;44.496;11.324;2022-10-16T12:19:02;17.57;;;14.03;;
9294;SDS011;4686;44.496;11.324;2022-10-16T12:21:30;19.60;;;15.00;;
9294;SDS011;4686;44.496;11.324;2022-10-16T12:23:58;17.37;;;14.37;;
9294;SDS011;4686;44.496;11.324;2022-10-16T12:26:28;14.63;;;13.13;;
9294;SDS011;4686;44.496;11.324;2022-10-16T12:28:55;21.40;;;14.10;;
9294;SDS011;4686;44.496;11.324;2022-10-16T12:31:43;22.30;;;17.23;;
9294;SDS011;4686;44.496;11.324;2022-10-16T12:34:14;21.37;;;16.80;;
9294;SDS011;4686;44.496;11.324;2022-10-16T12:36:43;27.73;;;17.80;;
9294;SDS011;4686;44.496;11.324;2022-10-16T12:39:16;28.67;;;17.90;;
9294;SDS011;4686;44.496;11.324;2022-10-16T12:44:34;30.37;;;16.77;;
9294;SDS011;4686;44.496;11.324;2022-10-16T12:47:02;18.63;;;14.00;;
9294;SDS011;4686;44.496;11.324;2022-10-16T12:49:34;16.87;;;14.17;;
9294;SDS011;4686;44.496;11.324;2022-10-16T12:52:03;20.77;;;16.10;;
9294;SDS011;4686;44.496;11.324;2022-10-16T12:54:30;19.60;;;15.83;;
9294;SDS011;4686;44.496;11.324;2022-10-16T12:57:03;25.53;;;19.20;;
9294;SDS011;4686;44.496;11.324;2022-10-16T12:59:38;31.63;;;23.43;;
9294;SDS011;4686;44.496;11.324;2022-10-16T13:02:16;20.57;;;13.07;;
9294;SDS011;4686;44.496;11.324;2022-10-16T13:04:58;14.60;;;11.67;;
9294;SDS011;4686;44.496;11.324;2022-10-16T13:07:37;20.83;;;14.87;;
9294;SDS011;4686;44.496;11.324;2022-10-16T13:10:11;16.93;;;14.87;;
9294;SDS011;4686;44.496;11.324;2022-10-16T13:12:45;33.17;;;24.60;;
9294;SDS011;4686;44.496;11.324;2022-10-16T13:18:02;18.07;;;15.03;;
9294;SDS011;4686;44.496;11.324;2022-10-16T13:20:31;17.70;;;15.17;;
9294;SDS011;4686;44.496;11.324;2022-10-16T13:23:04;14.37;;;12.97;;
9294;SDS011;4686;44.496;11.324;2022-10-16T13:25:37;18.63;;;14.90;;
9294;SDS011;4686;44.496;11.324;2022-10-16T13:28:08;15.60;;;12.90;;
9294;SDS011;4686;44.496;11.324;2022-10-16T13:30:36;16.47;;;13.20;;
9294;SDS011;4686;44.496;11.324;2022-10-16T13:33:10;16.93;;;13.50;;
9294;SDS011;4686;44.496;11.324;2022-10-16T13:35:46;40.43;;;28.43;;
9294;SDS011;4686;44.496;11.324;2022-10-16T13:38:16;26.03;;;18.67;;
9294;SDS011;4686;44.496;11.324;2022-10-16T13:40:50;16.10;;;12.27;;
9294;SDS011;4686;44.496;11.324;2022-10-16T13:43:17;15.97;;;12.37;;
9294;SDS011;4686;44.496;11.324;2022-10-16T13:45:52;11.93;;;10.63;;
9294;SDS011;4686;44.496;11.324;2022-10-16T13:48:21;26.93;;;20.27;;
9294;SDS011;4686;44.496;11.324;2022-10-16T13:50:58;36.90;;;24.77;;
9294;SDS011;4686;44.496;11.324;2022-10-16T13:53:26;21.33;;;14.10;;
9294;SDS011;4686;44.496;11.324;2022-10-16T13:55:53;22.70;;;17.87;;
9294;SDS011;4686;44.496;11.324;2022-10-16T13:58:20;21.97;;;19.40;;
9294;SDS011;4686;44.496;11.324;2022-10-16T14:00:54;17.60;;;11.07;;
9294;SDS011;4686;44.496;11.324;2022-10-16T14:03:24;14.40;;;12.77;;
9294;SDS011;4686;44.496;11.324;2022-10-16T14:05:52;13.20;;;11.90;;
9294;SDS011;4686;44.496;11.324;2022-10-16T14:08:21;13.70;;;11.67;;
9294;SDS011;4686;44.496;11.324;2022-10-16T14:10:49;17.90;;;12.57;;
9294;SDS011;4686;44.496;11.324;2022-10-16T14:13:24;17.17;;;15.00;;
9294;SDS011;4686;44.496;11.324;2022-10-16T14:15:53;15.63;;;12.50;;
9294;SDS011;4686;44.496;11.324;2022-10-16T14:18:25;15.97;;;12.50;;
9294;SDS011;4686;44.496;11.324;2022-10-16T14:20:54;15.23;;;12.13;;
9294;SDS011;4686;44.496;11.324;2022-10-16T14:23:22;17.60;;;13.00;;
9294;SDS011;4686;44.496;11.324;2022-10-16T14:25:51;18.83;;;15.13;;
9294;SDS011;4686;44.496;11.324;2022-10-16T14:28:20;17.43;;;12.07;;
9294;SDS011;4686;44.496;11.324;2022-10-16T14:30:51;12.50;;;11.30;;
9294;SDS011;4686;44.496;11.324;2022-10-16T14:33:22;13.50;;;12.00;;
9294;SDS011;4686;44.496;11.324;2022-10-16T14:36:12;15.43;;;12.93;;
9294;SDS011;4686;44.496;11.324;2022-10-16T14:38:41;14.33;;;11.57;;
9294;SDS011;4686;44.496;11.324;2022-10-16T14:41:11;20.43;;;17.33;;
9294;SDS011;4686;44.496;11.324;2022-10-16T14:43:38;12.23;;;10.93;;
9294;SDS011;4686;44.496;11.324;2022-10-16T14:46:06;24.13;;;19.63;;
9294;SDS011;4686;44.496;11.324;2022-10-16T14:48:36;14.57;;;12.00;;
9294;SDS011;4686;44.496;11.324;2022-10-16T14:51:10;22.83;;;18.10;;
9294;SDS011;4686;44.496;11.324;2022-10-16T14:53:40;25.47;;;18.93;;
9294;SDS011;4686;44.496;11.324;2022-10-16T14:56:08;26.77;;;21.97;;
9294;SDS011;4686;44.496;11.324;2022-10-16T14:58:41;13.47;;;11.40;;
9294;SDS011;4686;44.496;11.324;2022-10-16T15:01:09;19.13;;;13.87;;
9294;SDS011;4686;44.496;11.324;2022-10-16T15:03:38;14.83;;;12.23;;